sensor_id;sensor_type;location;lat;lon;timestamp;P1;durP1;ratioP1;P2;durP2;ratioP2
4198;SDS011;2113;50.946;14.610;2023-10-31T00:02:10;5.57;;;4.00;;
4198;SDS011;2113;50.946;14.610;2023-10-31T00:04:38;11.32;;;5.68;;
4198;SDS011;2113;50.946;14.610;2023-10-31T00:07:06;8.57;;;5.00;;
4198;SDS011;2113;50.946;14.610;2023-10-31T00:09:34;12.38;;;4.85;;
4198;SDS011;2113;50.946;14.610;2023-10-31T00:12:03;10.73;;;5.38;;
4198;SDS011;2113;50.946;14.610;2023-10-31T00:14:32;6.93;;;4.85;;
4198;SDS011;2113;50.946;14.610;2023-10-31T00:17:02;6.25;;;4.43;;
4198;SDS011;2113;50.946;14.610;2023-10-31T00:19:30;8.73;;;4.88;;
4198;SDS011;2113;50.946;14.610;2023-10-31T00:21:58;11.80;;;5.00;;
4198;SDS011;2113;50.946;14.610;2023-10-31T00:24:27;7.68;;;4.10;;
4198;SDS011;2113;50.946;14.610;2023-10-31T00:26:55;8.85;;;4.47;;
4198;SDS011;2113;50.946;14.610;2023-10-31T00:29:23;9.60;;;4.78;;
4198;SDS011;2113;50.946;14.610;2023-10-31T00:31:52;6.85;;;4.32;;
4198;SDS011;2113;50.946;14.610;2023-10-31T00:34:21;5.70;;;3.95;;
4198;SDS011;2113;50.946;14.610;2023-10-31T00:36:49;11.13;;;5.10;;
4198;SDS011;2113;50.946;14.610;2023-10-31T00:39:18;6.82;;;5.03;;
4198;SDS011;2113;50.946;14.610;2023-10-31T00:41:46;6.88;;;4.07;;
4198;SDS011;2113;50.946;14.610;2023-10-31T00:44:14;10.45;;;4.30;;
4198;SDS011;2113;50.946;14.610;2023-10-31T00:46:42;7.03;;;4.15;;
4198;SDS011;2113;50.946;14.610;2023-10-31T00:49:11;6.90;;;4.35;;
4198;SDS011;2113;50.946;14.610;2023-10-31T00:51:41;5.55;;;3.53;;
4198;SDS011;2113;50.946;14.610;2023-10-31T00:54:09;6.57;;;4.22;;
4198;SDS011;2113;50.946;14.610;2023-10-31T00:56:37;5.40;;;4.00;;
4198;SDS011;2113;50.946;14.610;2023-10-31T00:59:05;10.93;;;4.72;;
4198;SDS011;2113;50.946;14.610;2023-10-31T01:01:33;7.05;;;4.65;;
4198;SDS011;2113;50.946;14.610;2023-10-31T01:04:02;5.78;;;4.00;;
4198;SDS011;2113;50.946;14.610;2023-10-31T01:06:30;6.38;;;4.05;;
4198;SDS011;2113;50.946;14.610;2023-10-31T01:09:00;7.55;;;4.57;;
4198;SDS011;2113;50.946;14.610;2023-10-31T01:11:29;7.05;;;5.43;;
4198;SDS011;2113;50.946;14.610;2023-10-31T01:13:57;11.57;;;6.57;;
4198;SDS011;2113;50.946;14.610;2023-10-31T01:16:25;8.07;;;4.20;;
4198;SDS011;2113;50.946;14.610;2023-10-31T01:23:30;10.25;;;4.80;;
4198;SDS011;2113;50.946;14.610;2023-10-31T01:26:01;7.78;;;4.20;;
4198;SDS011;2113;50.946;14.610;2023-10-31T01:28:29;9.15;;;5.10;;
4198;SDS011;2113;50.946;14.610;2023-10-31T01:30:57;9.00;;;4.82;;
4198;SDS011;2113;50.946;14.610;2023-10-31T01:33:26;7.68;;;4.60;;
4198;SDS011;2113;50.946;14.610;2023-10-31T01:35:54;6.78;;;3.67;;
4198;SDS011;2113;50.946;14.610;2023-10-31T01:38:23;9.10;;;4.60;;
4198;SDS011;2113;50.946;14.610;2023-10-31T01:40:51;8.55;;;4.60;;
4198;SDS011;2113;50.946;14.610;2023-10-31T01:43:31;12.40;;;5.22;;
4198;SDS011;2113;50.946;14.610;2023-10-31T01:46:01;8.15;;;5.30;;
4198;SDS011;2113;50.946;14.610;2023-10-31T01:48:30;7.13;;;5.25;;
4198;SDS011;2113;50.946;14.610;2023-10-31T01:51:01;14.15;;;5.47;;
4198;SDS011;2113;50.946;14.610;2023-10-31T01:53:31;17.02;;;7.05;;
4198;SDS011;2113;50.946;14.610;2023-10-31T01:56:01;8.05;;;6.00;;
4198;SDS011;2113;50.946;14.610;2023-10-31T01:58:33;9.65;;;6.85;;
4198;SDS011;2113;50.946;14.610;2023-10-31T02:01:03;7.72;;;6.30;;
4198;SDS011;2113;50.946;14.610;2023-10-31T02:03:33;8.98;;;6.97;;
4198;SDS011;2113;50.946;14.610;2023-10-31T02:06:01;11.65;;;7.72;;
4198;SDS011;2113;50.946;14.610;2023-10-31T02:08:30;9.77;;;6.53;;
4198;SDS011;2113;50.946;14.610;2023-10-31T02:10:59;9.07;;;7.72;;
4198;SDS011;2113;50.946;14.610;2023-10-31T02:13:27;10.10;;;7.05;;
4198;SDS011;2113;50.946;14.610;2023-10-31T02:15:56;9.70;;;6.63;;
4198;SDS011;2113;50.946;14.610;2023-10-31T02:18:25;8.93;;;6.78;;
4198;SDS011;2113;50.946;14.610;2023-10-31T02:20:53;12.52;;;7.32;;
4198;SDS011;2113;50.946;14.610;2023-10-31T02:23:23;10.68;;;7.22;;
4198;SDS011;2113;50.946;14.610;2023-10-31T02:25:51;9.18;;;7.15;;
4198;SDS011;2113;50.946;14.610;2023-10-31T02:28:20;8.75;;;7.72;;
4198;SDS011;2113;50.946;14.610;2023-10-31T02:30:48;11.23;;;7.57;;
4198;SDS011;2113;50.946;14.610;2023-10-31T02:33:37;12.40;;;8.30;;
4198;SDS011;2113;50.946;14.610;2023-10-31T02:36:05;8.85;;;7.85;;
4198;SDS011;2113;50.946;14.610;2023-10-31T02:38:35;11.30;;;7.45;;
4198;SDS011;2113;50.946;14.610;2023-10-31T02:41:03;10.38;;;7.28;;
4198;SDS011;2113;50.946;14.610;2023-10-31T02:43:32;8.90;;;7.35;;
4198;SDS011;2113;50.946;14.610;2023-10-31T02:46:01;9.98;;;8.35;;
4198;SDS011;2113;50.946;14.610;2023-10-31T02:48:29;12.13;;;8.48;;
4198;SDS011;2113;50.946;14.610;2023-10-31T02:55:21;12.10;;;9.15;;
4198;SDS011;2113;50.946;14.610;2023-10-31T02:57:50;11.43;;;8.80;;
4198;SDS011;2113;50.946;14.610;2023-10-31T03:00:19;13.18;;;9.40;;
4198;SDS011;2113;50.946;14.610;2023-10-31T03:02:47;13.05;;;10.00;;
4198;SDS011;2113;50.946;14.610;2023-10-31T03:05:16;11.60;;;10.25;;
4198;SDS011;2113;50.946;14.610;2023-10-31T03:07:45;12.55;;;10.10;;
4198;SDS011;2113;50.946;14.610;2023-10-31T03:10:13;12.45;;;9.50;;
4198;SDS011;2113;50.946;14.610;2023-10-31T03:12:43;15.70;;;11.38;;
4198;SDS011;2113;50.946;14.610;2023-10-31T03:15:11;14.10;;;9.82;;
4198;SDS011;2113;50.946;14.610;2023-10-31T03:17:39;14.90;;;10.95;;
4198;SDS011;2113;50.946;14.610;2023-10-31T03:20:07;15.02;;;10.23;;
4198;SDS011;2113;50.946;14.610;2023-10-31T03:22:37;12.93;;;10.25;;
4198;SDS011;2113;50.946;14.610;2023-10-31T03:25:05;17.20;;;10.70;;
4198;SDS011;2113;50.946;14.610;2023-10-31T03:27:34;14.80;;;11.15;;
4198;SDS011;2113;50.946;14.610;2023-10-31T03:30:05;15.82;;;11.32;;
4198;SDS011;2113;50.946;14.610;2023-10-31T03:32:34;22.75;;;10.98;;
4198;SDS011;2113;50.946;14.610;2023-10-31T03:35:02;21.42;;;11.63;;
4198;SDS011;2113;50.946;14.610;2023-10-31T03:37:31;14.10;;;10.18;;
4198;SDS011;2113;50.946;14.610;2023-10-31T03:39:59;12.57;;;9.32;;
4198;SDS011;2113;50.946;14.610;2023-10-31T03:42:27;17.75;;;11.18;;
4198;SDS011;2113;50.946;14.610;2023-10-31T03:44:55;15.23;;;9.57;;
4198;SDS011;2113;50.946;14.610;2023-10-31T03:47:25;12.63;;;9.73;;
4198;SDS011;2113;50.946;14.610;2023-10-31T03:49:53;15.10;;;10.50;;
4198;SDS011;2113;50.946;14.610;2023-10-31T03:52:21;15.35;;;11.05;;
4198;SDS011;2113;50.946;14.610;2023-10-31T03:54:49;14.88;;;10.75;;
4198;SDS011;2113;50.946;14.610;2023-10-31T03:57:18;15.13;;;10.43;;
4198;SDS011;2113;50.946;14.610;2023-10-31T03:59:46;13.98;;;11.05;;
4198;SDS011;2113;50.946;14.610;2023-10-31T04:02:14;14.93;;;11.98;;
4198;SDS011;2113;50.946;14.610;2023-10-31T04:04:43;17.17;;;13.05;;
4198;SDS011;2113;50.946;14.610;2023-10-31T04:07:12;18.75;;;13.25;;
4198;SDS011;2113;50.946;14.610;2023-10-31T04:09:40;21.50;;;13.05;;
4198;SDS011;2113;50.946;14.610;2023-10-31T04:12:08;18.67;;;13.70;;
4198;SDS011;2113;50.946;14.610;2023-10-31T04:14:38;17.70;;;13.50;;
4198;SDS011;2113;50.946;14.610;2023-10-31T04:17:06;17.35;;;11.98;;
4198;SDS011;2113;50.946;14.610;2023-10-31T04:19:34;18.42;;;12.88;;
4198;SDS011;2113;50.946;14.610;2023-10-31T04:22:05;19.15;;;11.70;;
4198;SDS011;2113;50.946;14.610;2023-10-31T04:24:33;14.40;;;10.50;;
4198;SDS011;2113;50.946;14.610;2023-10-31T04:27:01;13.50;;;11.25;;
4198;SDS011;2113;50.946;14.610;2023-10-31T04:29:31;15.55;;;10.35;;
4198;SDS011;2113;50.946;14.610;2023-10-31T04:32:01;13.13;;;8.95;;
4198;SDS011;2113;50.946;14.610;2023-10-31T04:34:29;12.48;;;7.80;;
4198;SDS011;2113;50.946;14.610;2023-10-31T04:36:57;9.80;;;7.05;;
4198;SDS011;2113;50.946;14.610;2023-10-31T04:39:27;9.13;;;6.75;;
4198;SDS011;2113;50.946;14.610;2023-10-31T04:41:55;9.68;;;6.82;;
4198;SDS011;2113;50.946;14.610;2023-10-31T04:44:23;9.13;;;6.43;;
4198;SDS011;2113;50.946;14.610;2023-10-31T04:46:51;9.75;;;6.85;;
4198;SDS011;2113;50.946;14.610;2023-10-31T04:49:20;8.10;;;6.45;;
4198;SDS011;2113;50.946;14.610;2023-10-31T04:51:48;10.30;;;7.50;;
4198;SDS011;2113;50.946;14.610;2023-10-31T04:54:16;8.93;;;5.75;;
4198;SDS011;2113;50.946;14.610;2023-10-31T04:56:46;9.48;;;6.57;;
4198;SDS011;2113;50.946;14.610;2023-10-31T04:59:15;9.68;;;7.15;;
4198;SDS011;2113;50.946;14.610;2023-10-31T05:01:47;8.88;;;6.50;;
4198;SDS011;2113;50.946;14.610;2023-10-31T05:04:17;9.68;;;5.70;;
4198;SDS011;2113;50.946;14.610;2023-10-31T05:06:45;9.95;;;7.00;;
4198;SDS011;2113;50.946;14.610;2023-10-31T05:09:13;10.15;;;6.53;;
4198;SDS011;2113;50.946;14.610;2023-10-31T05:11:42;9.70;;;5.75;;
4198;SDS011;2113;50.946;14.610;2023-10-31T05:14:11;11.00;;;6.97;;
4198;SDS011;2113;50.946;14.610;2023-10-31T05:16:40;10.07;;;6.60;;
4198;SDS011;2113;50.946;14.610;2023-10-31T05:19:09;10.90;;;5.93;;
4198;SDS011;2113;50.946;14.610;2023-10-31T05:21:38;7.93;;;5.43;;
4198;SDS011;2113;50.946;14.610;2023-10-31T05:24:07;9.80;;;5.95;;
4198;SDS011;2113;50.946;14.610;2023-10-31T05:26:35;8.65;;;4.80;;
4198;SDS011;2113;50.946;14.610;2023-10-31T05:29:05;8.07;;;5.10;;
4198;SDS011;2113;50.946;14.610;2023-10-31T05:31:36;10.25;;;4.95;;
4198;SDS011;2113;50.946;14.610;2023-10-31T05:34:04;7.78;;;5.10;;
4198;SDS011;2113;50.946;14.610;2023-10-31T05:36:33;6.00;;;4.20;;
4198;SDS011;2113;50.946;14.610;2023-10-31T05:39:01;5.65;;;3.80;;
4198;SDS011;2113;50.946;14.610;2023-10-31T05:41:29;6.80;;;2.55;;
4198;SDS011;2113;50.946;14.610;2023-10-31T05:43:58;6.25;;;3.17;;
4198;SDS011;2113;50.946;14.610;2023-10-31T05:46:26;4.80;;;2.88;;
4198;SDS011;2113;50.946;14.610;2023-10-31T05:48:56;4.15;;;2.22;;
4198;SDS011;2113;50.946;14.610;2023-10-31T05:51:24;5.25;;;2.22;;
4198;SDS011;2113;50.946;14.610;2023-10-31T05:53:53;4.30;;;2.35;;
4198;SDS011;2113;50.946;14.610;2023-10-31T05:56:21;3.92;;;2.30;;
4198;SDS011;2113;50.946;14.610;2023-10-31T05:58:51;4.50;;;2.83;;
4198;SDS011;2113;50.946;14.610;2023-10-31T06:01:19;3.95;;;2.72;;
4198;SDS011;2113;50.946;14.610;2023-10-31T06:03:47;5.65;;;2.45;;
4198;SDS011;2113;50.946;14.610;2023-10-31T06:06:16;8.00;;;2.60;;
4198;SDS011;2113;50.946;14.610;2023-10-31T06:08:45;4.75;;;2.60;;
4198;SDS011;2113;50.946;14.610;2023-10-31T06:11:13;3.78;;;2.33;;
4198;SDS011;2113;50.946;14.610;2023-10-31T06:13:42;4.10;;;2.88;;
4198;SDS011;2113;50.946;14.610;2023-10-31T06:16:10;6.60;;;3.85;;
4198;SDS011;2113;50.946;14.610;2023-10-31T06:18:39;4.38;;;2.95;;
4198;SDS011;2113;50.946;14.610;2023-10-31T06:21:09;7.07;;;3.72;;
4198;SDS011;2113;50.946;14.610;2023-10-31T06:23:38;5.68;;;3.90;;
4198;SDS011;2113;50.946;14.610;2023-10-31T06:26:07;4.82;;;3.08;;
4198;SDS011;2113;50.946;14.610;2023-10-31T06:28:36;4.55;;;2.80;;
4198;SDS011;2113;50.946;14.610;2023-10-31T06:31:18;5.78;;;3.45;;
4198;SDS011;2113;50.946;14.610;2023-10-31T06:33:46;4.95;;;3.35;;
4198;SDS011;2113;50.946;14.610;2023-10-31T06:36:14;4.30;;;2.70;;
4198;SDS011;2113;50.946;14.610;2023-10-31T06:38:44;4.88;;;2.97;;
4198;SDS011;2113;50.946;14.610;2023-10-31T06:41:15;5.22;;;2.63;;
4198;SDS011;2113;50.946;14.610;2023-10-31T06:43:43;5.47;;;3.22;;
4198;SDS011;2113;50.946;14.610;2023-10-31T06:46:12;5.53;;;3.28;;
4198;SDS011;2113;50.946;14.610;2023-10-31T06:48:41;6.10;;;4.05;;
4198;SDS011;2113;50.946;14.610;2023-10-31T06:51:10;6.20;;;3.67;;
4198;SDS011;2113;50.946;14.610;2023-10-31T06:53:39;8.27;;;4.32;;
4198;SDS011;2113;50.946;14.610;2023-10-31T06:56:09;7.40;;;5.00;;
4198;SDS011;2113;50.946;14.610;2023-10-31T06:58:37;6.47;;;5.03;;
4198;SDS011;2113;50.946;14.610;2023-10-31T07:01:05;9.02;;;5.25;;
4198;SDS011;2113;50.946;14.610;2023-10-31T07:03:33;8.45;;;5.97;;
4198;SDS011;2113;50.946;14.610;2023-10-31T07:06:02;7.22;;;4.75;;
4198;SDS011;2113;50.946;14.610;2023-10-31T07:08:30;6.75;;;4.65;;
4198;SDS011;2113;50.946;14.610;2023-10-31T07:10:58;7.78;;;5.95;;
4198;SDS011;2113;50.946;14.610;2023-10-31T07:13:30;8.13;;;4.85;;
4198;SDS011;2113;50.946;14.610;2023-10-31T07:15:58;6.22;;;4.35;;
4198;SDS011;2113;50.946;14.610;2023-10-31T07:18:26;5.97;;;3.40;;
4198;SDS011;2113;50.946;14.610;2023-10-31T07:20:55;5.97;;;4.07;;
4198;SDS011;2113;50.946;14.610;2023-10-31T07:23:24;6.75;;;4.40;;
4198;SDS011;2113;50.946;14.610;2023-10-31T07:25:52;4.20;;;3.00;;
4198;SDS011;2113;50.946;14.610;2023-10-31T07:28:21;7.95;;;4.53;;
4198;SDS011;2113;50.946;14.610;2023-10-31T07:30:50;6.80;;;2.88;;
4198;SDS011;2113;50.946;14.610;2023-10-31T07:33:19;4.28;;;2.70;;
4198;SDS011;2113;50.946;14.610;2023-10-31T07:35:47;3.85;;;2.20;;
4198;SDS011;2113;50.946;14.610;2023-10-31T07:38:15;3.97;;;2.38;;
4198;SDS011;2113;50.946;14.610;2023-10-31T07:40:44;4.65;;;2.55;;
4198;SDS011;2113;50.946;14.610;2023-10-31T07:43:12;3.47;;;1.60;;
4198;SDS011;2113;50.946;14.610;2023-10-31T07:45:40;8.75;;;2.80;;
4198;SDS011;2113;50.946;14.610;2023-10-31T07:48:10;4.20;;;2.40;;
4198;SDS011;2113;50.946;14.610;2023-10-31T07:50:38;4.97;;;2.30;;
4198;SDS011;2113;50.946;14.610;2023-10-31T07:53:07;3.83;;;2.10;;
4198;SDS011;2113;50.946;14.610;2023-10-31T07:55:35;4.78;;;2.17;;
4198;SDS011;2113;50.946;14.610;2023-10-31T07:58:11;3.03;;;1.80;;
4198;SDS011;2113;50.946;14.610;2023-10-31T08:00:39;2.78;;;1.45;;
4198;SDS011;2113;50.946;14.610;2023-10-31T08:03:07;4.30;;;2.30;;
4198;SDS011;2113;50.946;14.610;2023-10-31T08:05:41;3.30;;;1.70;;
4198;SDS011;2113;50.946;14.610;2023-10-31T08:08:10;3.03;;;1.60;;
4198;SDS011;2113;50.946;14.610;2023-10-31T08:10:38;3.10;;;1.10;;
4198;SDS011;2113;50.946;14.610;2023-10-31T08:13:06;3.00;;;1.23;;
4198;SDS011;2113;50.946;14.610;2023-10-31T08:15:35;3.17;;;1.23;;
4198;SDS011;2113;50.946;14.610;2023-10-31T08:18:03;3.35;;;1.45;;
4198;SDS011;2113;50.946;14.610;2023-10-31T08:20:33;3.20;;;1.20;;
4198;SDS011;2113;50.946;14.610;2023-10-31T08:23:01;3.47;;;1.10;;
4198;SDS011;2113;50.946;14.610;2023-10-31T08:25:30;6.53;;;1.77;;
4198;SDS011;2113;50.946;14.610;2023-10-31T08:27:58;2.80;;;1.02;;
4198;SDS011;2113;50.946;14.610;2023-10-31T08:30:26;2.50;;;0.90;;
4198;SDS011;2113;50.946;14.610;2023-10-31T08:32:54;2.15;;;0.82;;
4198;SDS011;2113;50.946;14.610;2023-10-31T08:35:23;3.78;;;0.60;;
4198;SDS011;2113;50.946;14.610;2023-10-31T08:37:53;2.40;;;0.80;;
4198;SDS011;2113;50.946;14.610;2023-10-31T08:40:22;2.38;;;0.80;;
4198;SDS011;2113;50.946;14.610;2023-10-31T08:42:51;2.90;;;1.00;;
4198;SDS011;2113;50.946;14.610;2023-10-31T08:45:19;2.20;;;0.70;;
4198;SDS011;2113;50.946;14.610;2023-10-31T08:47:50;3.13;;;0.73;;
4198;SDS011;2113;50.946;14.610;2023-10-31T08:50:18;2.33;;;0.68;;
4198;SDS011;2113;50.946;14.610;2023-10-31T08:52:46;2.00;;;0.50;;
4198;SDS011;2113;50.946;14.610;2023-10-31T08:55:16;2.00;;;0.70;;
4198;SDS011;2113;50.946;14.610;2023-10-31T08:57:44;2.08;;;0.60;;
4198;SDS011;2113;50.946;14.610;2023-10-31T09:00:13;1.95;;;0.50;;
4198;SDS011;2113;50.946;14.610;2023-10-31T09:02:41;2.25;;;0.70;;
4198;SDS011;2113;50.946;14.610;2023-10-31T09:05:09;2.88;;;1.10;;
4198;SDS011;2113;50.946;14.610;2023-10-31T09:07:38;2.92;;;0.93;;
4198;SDS011;2113;50.946;14.610;2023-10-31T09:10:07;4.35;;;1.17;;
4198;SDS011;2113;50.946;14.610;2023-10-31T09:12:37;3.42;;;1.30;;
4198;SDS011;2113;50.946;14.610;2023-10-31T09:15:06;3.08;;;0.70;;
4198;SDS011;2113;50.946;14.610;2023-10-31T09:17:36;2.65;;;1.00;;
4198;SDS011;2113;50.946;14.610;2023-10-31T09:20:05;2.25;;;0.80;;
4198;SDS011;2113;50.946;14.610;2023-10-31T09:22:35;3.03;;;0.75;;
4198;SDS011;2113;50.946;14.610;2023-10-31T09:25:03;2.28;;;0.65;;
4198;SDS011;2113;50.946;14.610;2023-10-31T09:27:33;2.33;;;0.68;;
4198;SDS011;2113;50.946;14.610;2023-10-31T09:30:03;1.90;;;0.70;;
4198;SDS011;2113;50.946;14.610;2023-10-31T09:32:33;2.42;;;0.70;;
4198;SDS011;2113;50.946;14.610;2023-10-31T09:35:01;3.17;;;0.45;;
4198;SDS011;2113;50.946;14.610;2023-10-31T09:37:30;3.30;;;0.40;;
4198;SDS011;2113;50.946;14.610;2023-10-31T09:39:58;2.42;;;0.60;;
4198;SDS011;2113;50.946;14.610;2023-10-31T09:42:26;4.25;;;0.70;;
4198;SDS011;2113;50.946;14.610;2023-10-31T09:44:55;2.10;;;0.60;;
4198;SDS011;2113;50.946;14.610;2023-10-31T09:47:24;4.93;;;0.60;;
4198;SDS011;2113;50.946;14.610;2023-10-31T09:49:53;1.90;;;0.40;;
4198;SDS011;2113;50.946;14.610;2023-10-31T09:52:21;3.00;;;0.75;;
4198;SDS011;2113;50.946;14.610;2023-10-31T09:54:50;2.65;;;0.90;;
4198;SDS011;2113;50.946;14.610;2023-10-31T09:57:20;2.25;;;0.60;;
4198;SDS011;2113;50.946;14.610;2023-10-31T09:59:49;2.42;;;0.68;;
4198;SDS011;2113;50.946;14.610;2023-10-31T10:02:20;2.53;;;0.85;;
4198;SDS011;2113;50.946;14.610;2023-10-31T10:04:51;2.10;;;0.50;;
4198;SDS011;2113;50.946;14.610;2023-10-31T10:07:20;2.10;;;0.50;;
4198;SDS011;2113;50.946;14.610;2023-10-31T10:09:48;2.53;;;0.60;;
4198;SDS011;2113;50.946;14.610;2023-10-31T10:12:17;2.25;;;0.43;;
4198;SDS011;2113;50.946;14.610;2023-10-31T10:14:46;2.05;;;0.50;;
4198;SDS011;2113;50.946;14.610;2023-10-31T10:17:15;6.05;;;0.77;;
4198;SDS011;2113;50.946;14.610;2023-10-31T10:19:44;2.60;;;0.45;;
4198;SDS011;2113;50.946;14.610;2023-10-31T10:22:14;2.05;;;0.50;;
4198;SDS011;2113;50.946;14.610;2023-10-31T10:24:45;1.92;;;0.35;;
4198;SDS011;2113;50.946;14.610;2023-10-31T10:27:15;2.13;;;0.55;;
4198;SDS011;2113;50.946;14.610;2023-10-31T10:29:43;2.00;;;0.65;;
4198;SDS011;2113;50.946;14.610;2023-10-31T10:32:11;2.55;;;0.70;;
4198;SDS011;2113;50.946;14.610;2023-10-31T10:34:41;4.28;;;0.85;;
4198;SDS011;2113;50.946;14.610;2023-10-31T10:37:10;3.97;;;0.63;;
4198;SDS011;2113;50.946;14.610;2023-10-31T10:39:40;1.80;;;0.30;;
4198;SDS011;2113;50.946;14.610;2023-10-31T10:42:10;1.80;;;0.30;;
4198;SDS011;2113;50.946;14.610;2023-10-31T10:44:41;1.88;;;0.50;;
4198;SDS011;2113;50.946;14.610;2023-10-31T10:47:12;1.85;;;0.38;;
4198;SDS011;2113;50.946;14.610;2023-10-31T10:49:42;2.00;;;0.50;;
4198;SDS011;2113;50.946;14.610;2023-10-31T10:52:16;2.67;;;0.40;;
4198;SDS011;2113;50.946;14.610;2023-10-31T10:54:52;2.22;;;0.50;;
4198;SDS011;2113;50.946;14.610;2023-10-31T10:57:28;4.85;;;0.50;;
4198;SDS011;2113;50.946;14.610;2023-10-31T11:00:02;1.75;;;0.30;;
4198;SDS011;2113;50.946;14.610;2023-10-31T11:02:32;3.35;;;0.40;;
4198;SDS011;2113;50.946;14.610;2023-10-31T11:05:03;2.00;;;0.32;;
4198;SDS011;2113;50.946;14.610;2023-10-31T11:07:34;3.25;;;0.60;;
4198;SDS011;2113;50.946;14.610;2023-10-31T11:10:06;1.70;;;0.40;;
4198;SDS011;2113;50.946;14.610;2023-10-31T11:12:37;1.90;;;0.57;;
4198;SDS011;2113;50.946;14.610;2023-10-31T11:15:06;2.53;;;0.40;;
4198;SDS011;2113;50.946;14.610;2023-10-31T11:17:37;1.50;;;0.30;;
4198;SDS011;2113;50.946;14.610;2023-10-31T11:20:09;3.65;;;0.30;;
4198;SDS011;2113;50.946;14.610;2023-10-31T11:22:41;3.95;;;0.98;;
4198;SDS011;2113;50.946;14.610;2023-10-31T11:25:14;4.50;;;0.50;;
4198;SDS011;2113;50.946;14.610;2023-10-31T11:27:56;1.88;;;0.43;;
4198;SDS011;2113;50.946;14.610;2023-10-31T11:30:38;3.28;;;0.60;;
4198;SDS011;2113;50.946;14.610;2023-10-31T11:33:11;1.80;;;0.30;;
4198;SDS011;2113;50.946;14.610;2023-10-31T11:35:40;2.30;;;0.50;;
4198;SDS011;2113;50.946;14.610;2023-10-31T11:38:11;2.53;;;0.75;;
4198;SDS011;2113;50.946;14.610;2023-10-31T11:40:57;1.70;;;0.40;;
4198;SDS011;2113;50.946;14.610;2023-10-31T11:46:19;1.85;;;0.45;;
4198;SDS011;2113;50.946;14.610;2023-10-31T11:48:50;1.77;;;0.40;;
4198;SDS011;2113;50.946;14.610;2023-10-31T11:51:19;2.08;;;0.60;;
4198;SDS011;2113;50.946;14.610;2023-10-31T11:53:48;1.75;;;0.50;;
4198;SDS011;2113;50.946;14.610;2023-10-31T11:56:20;1.73;;;0.40;;
4198;SDS011;2113;50.946;14.610;2023-10-31T11:58:56;1.73;;;0.30;;
4198;SDS011;2113;50.946;14.610;2023-10-31T12:01:26;2.45;;;0.57;;
4198;SDS011;2113;50.946;14.610;2023-10-31T12:03:55;1.70;;;0.30;;
4198;SDS011;2113;50.946;14.610;2023-10-31T12:06:23;3.90;;;0.35;;
4198;SDS011;2113;50.946;14.610;2023-10-31T12:08:52;3.05;;;0.60;;
4198;SDS011;2113;50.946;14.610;2023-10-31T12:11:22;2.15;;;0.43;;
4198;SDS011;2113;50.946;14.610;2023-10-31T12:13:52;2.92;;;0.50;;
4198;SDS011;2113;50.946;14.610;2023-10-31T12:16:23;1.48;;;0.30;;
4198;SDS011;2113;50.946;14.610;2023-10-31T12:18:55;2.92;;;0.60;;
4198;SDS011;2113;50.946;14.610;2023-10-31T12:21:35;1.85;;;0.50;;
4198;SDS011;2113;50.946;14.610;2023-10-31T12:24:09;2.03;;;0.45;;
4198;SDS011;2113;50.946;14.610;2023-10-31T12:26:39;2.00;;;0.73;;
4198;SDS011;2113;50.946;14.610;2023-10-31T12:29:09;2.05;;;0.60;;
4198;SDS011;2113;50.946;14.610;2023-10-31T12:31:42;4.15;;;0.60;;
4198;SDS011;2113;50.946;14.610;2023-10-31T12:34:12;1.70;;;0.40;;
4198;SDS011;2113;50.946;14.610;2023-10-31T12:36:41;1.95;;;0.40;;
4198;SDS011;2113;50.946;14.610;2023-10-31T12:39:11;1.80;;;0.40;;
4198;SDS011;2113;50.946;14.610;2023-10-31T12:41:41;1.85;;;0.50;;
4198;SDS011;2113;50.946;14.610;2023-10-31T12:44:10;1.80;;;0.57;;
4198;SDS011;2113;50.946;14.610;2023-10-31T12:46:41;2.20;;;0.35;;
4198;SDS011;2113;50.946;14.610;2023-10-31T12:49:12;2.00;;;0.50;;
4198;SDS011;2113;50.946;14.610;2023-10-31T12:51:57;2.00;;;0.60;;
4198;SDS011;2113;50.946;14.610;2023-10-31T12:54:27;3.60;;;0.65;;
4198;SDS011;2113;50.946;14.610;2023-10-31T12:57:00;2.00;;;0.55;;
4198;SDS011;2113;50.946;14.610;2023-10-31T12:59:29;2.63;;;0.60;;
4198;SDS011;2113;50.946;14.610;2023-10-31T13:01:57;2.20;;;0.60;;
4198;SDS011;2113;50.946;14.610;2023-10-31T13:04:27;2.00;;;0.50;;
4198;SDS011;2113;50.946;14.610;2023-10-31T13:06:56;2.13;;;0.65;;
4198;SDS011;2113;50.946;14.610;2023-10-31T13:09:29;2.10;;;0.50;;
4198;SDS011;2113;50.946;14.610;2023-10-31T13:12:00;2.25;;;0.70;;
4198;SDS011;2113;50.946;14.610;2023-10-31T13:14:30;2.90;;;0.73;;
4198;SDS011;2113;50.946;14.610;2023-10-31T13:16:58;2.17;;;0.65;;
4198;SDS011;2113;50.946;14.610;2023-10-31T13:19:27;1.88;;;0.57;;
4198;SDS011;2113;50.946;14.610;2023-10-31T13:21:55;3.15;;;0.57;;
4198;SDS011;2113;50.946;14.610;2023-10-31T13:24:24;2.08;;;0.63;;
4198;SDS011;2113;50.946;14.610;2023-10-31T13:26:52;2.63;;;0.73;;
4198;SDS011;2113;50.946;14.610;2023-10-31T13:29:21;1.80;;;0.50;;
4198;SDS011;2113;50.946;14.610;2023-10-31T13:31:52;1.95;;;0.57;;
4198;SDS011;2113;50.946;14.610;2023-10-31T13:34:21;2.45;;;0.63;;
4198;SDS011;2113;50.946;14.610;2023-10-31T13:36:50;1.70;;;0.45;;
4198;SDS011;2113;50.946;14.610;2023-10-31T13:39:21;3.10;;;0.50;;
4198;SDS011;2113;50.946;14.610;2023-10-31T13:41:50;1.77;;;0.38;;
4198;SDS011;2113;50.946;14.610;2023-10-31T13:44:18;3.30;;;0.60;;
4198;SDS011;2113;50.946;14.610;2023-10-31T13:46:48;2.80;;;0.73;;
4198;SDS011;2113;50.946;14.610;2023-10-31T13:49:16;3.38;;;0.50;;
4198;SDS011;2113;50.946;14.610;2023-10-31T13:51:46;3.33;;;0.50;;
4198;SDS011;2113;50.946;14.610;2023-10-31T13:54:14;2.40;;;0.80;;
4198;SDS011;2113;50.946;14.610;2023-10-31T13:56:44;1.80;;;0.47;;
4198;SDS011;2113;50.946;14.610;2023-10-31T13:59:12;1.92;;;0.60;;
4198;SDS011;2113;50.946;14.610;2023-10-31T14:01:41;3.22;;;0.68;;
4198;SDS011;2113;50.946;14.610;2023-10-31T14:04:11;1.80;;;0.60;;
4198;SDS011;2113;50.946;14.610;2023-10-31T14:06:41;2.10;;;0.68;;
4198;SDS011;2113;50.946;14.610;2023-10-31T14:09:10;2.50;;;0.68;;
4198;SDS011;2113;50.946;14.610;2023-10-31T14:11:39;2.72;;;1.20;;
4198;SDS011;2113;50.946;14.610;2023-10-31T14:14:08;1.92;;;0.50;;
4198;SDS011;2113;50.946;14.610;2023-10-31T14:16:37;2.50;;;1.05;;
4198;SDS011;2113;50.946;14.610;2023-10-31T14:19:07;3.33;;;1.10;;
4198;SDS011;2113;50.946;14.610;2023-10-31T14:21:37;2.70;;;1.50;;
4198;SDS011;2113;50.946;14.610;2023-10-31T14:24:05;3.63;;;2.10;;
4198;SDS011;2113;50.946;14.610;2023-10-31T14:26:39;2.22;;;0.80;;
4198;SDS011;2113;50.946;14.610;2023-10-31T14:29:11;2.55;;;0.90;;
4198;SDS011;2113;50.946;14.610;2023-10-31T14:31:40;2.40;;;0.63;;
4198;SDS011;2113;50.946;14.610;2023-10-31T14:34:09;2.35;;;1.17;;
4198;SDS011;2113;50.946;14.610;2023-10-31T14:36:39;5.40;;;0.70;;
4198;SDS011;2113;50.946;14.610;2023-10-31T14:39:08;1.83;;;0.50;;
4198;SDS011;2113;50.946;14.610;2023-10-31T14:41:36;3.20;;;1.30;;
4198;SDS011;2113;50.946;14.610;2023-10-31T14:44:05;2.72;;;0.70;;
4198;SDS011;2113;50.946;14.610;2023-10-31T14:46:35;2.58;;;0.80;;
4198;SDS011;2113;50.946;14.610;2023-10-31T14:49:03;2.88;;;0.63;;
4198;SDS011;2113;50.946;14.610;2023-10-31T14:51:32;2.33;;;0.75;;
4198;SDS011;2113;50.946;14.610;2023-10-31T14:54:02;3.95;;;0.77;;
4198;SDS011;2113;50.946;14.610;2023-10-31T14:56:30;4.82;;;0.82;;
4198;SDS011;2113;50.946;14.610;2023-10-31T14:58:58;2.20;;;0.60;;
4198;SDS011;2113;50.946;14.610;2023-10-31T15:01:29;2.90;;;0.70;;
4198;SDS011;2113;50.946;14.610;2023-10-31T15:03:58;2.50;;;0.70;;
4198;SDS011;2113;50.946;14.610;2023-10-31T15:06:27;2.20;;;0.60;;
4198;SDS011;2113;50.946;14.610;2023-10-31T15:08:55;3.30;;;0.77;;
4198;SDS011;2113;50.946;14.610;2023-10-31T15:11:24;3.90;;;1.20;;
4198;SDS011;2113;50.946;14.610;2023-10-31T15:13:53;4.40;;;1.20;;
4198;SDS011;2113;50.946;14.610;2023-10-31T15:16:21;5.50;;;1.20;;
4198;SDS011;2113;50.946;14.610;2023-10-31T15:18:51;3.33;;;1.30;;
4198;SDS011;2113;50.946;14.610;2023-10-31T15:21:19;3.67;;;1.35;;
4198;SDS011;2113;50.946;14.610;2023-10-31T15:23:47;2.95;;;1.20;;